»·PEaware :: N310LD KRDD-KPAO

N310LD :: KRDD-KPAO

FLIGHT INFORMATION

Flight Status: Arrived
Operator: Privately registered:
United States
More flights under this callsign
Pilot: Slade E. (12022)
Aircraft: CESSNA 310
(C310)
More flights by this aircraft type
Origin: KRDD Redding Mun
United States
Destination: KPAO Palo Alto Of Santa Clara Co
United States
More flights between these airports :: More routes between these airports
Route: +HOMAN3 RBL V25 SAPID
File this flight plan on PilotEdge
Remarks:
Altitude:
(Current/Filed)
12,000ft
Speed:
(Current/Filed)
180kts
Departed: 08-Nov-20 11:06 AM
Arrived: 08-Nov-20 12:31 PM
Distance/Time
Traveled:
183nm/1:25
Distance/Time
To Go:
Arrived

Flight Plot

Page will automatically refresh every two minutes.

Flight plan parsing failed; only flown route is shown


Map Options




Map Legend


Flown Route
Filed Route
Departure Airport
Arrival Airport
Navaid (VOR, NDB)
Fix

Horizontal Profiles

Position Reports

Time Latitude Longitude Heading Altitude Ground
Speed
08-Nov-20 10:48 40.510271 -122.297923 359 496ft 0kts
08-Nov-20 10:49 40.510271 -122.297923 359 496ft 0kts
08-Nov-20 10:50 40.510271 -122.297923 359 496ft 0kts
08-Nov-20 10:51 40.510271 -122.297923 359 496ft 0kts
08-Nov-20 10:52 40.510271 -122.297923 359 496ft 0kts
08-Nov-20 10:53 40.510271 -122.297923 359 496ft 0kts
08-Nov-20 10:54 40.510271 -122.297923 359 496ft 0kts
08-Nov-20 10:55 40.510271 -122.297923 359 496ft 0kts
08-Nov-20 10:57 40.510271 -122.297923 359 496ft 0kts
08-Nov-20 10:58 40.510271 -122.297923 359 496ft 0kts
08-Nov-20 10:59 40.510271 -122.297923 359 496ft 0kts
08-Nov-20 11:00 40.508628 -122.298606 182 495ft 16kts
08-Nov-20 11:01 40.502750 -122.297007 134 492ft 18kts
08-Nov-20 11:02 40.501526 -122.296230 28 491ft 0kts
08-Nov-20 11:03 40.501526 -122.296230 28 491ft 0kts
08-Nov-20 11:04 40.501612 -122.295983 101 490ft 0kts
08-Nov-20 11:05 40.501608 -122.295954 101 490ft 2kts
08-Nov-20 11:06 40.511034 -122.294827 358 606ft 98kts
08-Nov-20 11:07 40.533523 -122.278839 87 1909ft 126kts
08-Nov-20 11:08 40.502933 -122.255954 162 3135ft 136kts
08-Nov-20 11:09 40.469263 -122.233599 124 4204ft 137kts
08-Nov-20 11:10 40.444265 -122.192056 116 5220ft 147kts
08-Nov-20 11:11 40.420945 -122.147615 121 6236ft 149kts
08-Nov-20 11:12 40.385234 -122.125423 203 6999ft 160kts
08-Nov-20 11:13 40.343809 -122.144378 196 7892ft 160kts
08-Nov-20 11:13 40.307777 -122.157978 201 8612ft 164kts
08-Nov-20 11:15 40.257308 -122.179344 204 9627ft 164kts
08-Nov-20 11:15 40.221739 -122.196690 204 10267ft 164kts
08-Nov-20 11:17 40.169067 -122.213346 199 11051ft 167kts
08-Nov-20 11:17 40.131099 -122.224291 199 11560ft 167kts
08-Nov-20 11:18 40.086611 -122.242086 212 12048ft 169kts
08-Nov-20 11:19 40.040223 -122.267631 209 12067ft 188kts
08-Nov-20 11:20 39.990953 -122.295072 211 12028ft 194kts
08-Nov-20 11:21 39.942101 -122.324870 213 12043ft 193kts
08-Nov-20 11:22 39.892816 -122.353765 213 12010ft 196kts
08-Nov-20 11:23 39.843611 -122.383678 208 12006ft 194kts
08-Nov-20 11:24 39.793301 -122.408845 208 12014ft 194kts
08-Nov-20 11:25 39.743151 -122.434624 209 12029ft 193kts
08-Nov-20 11:26 39.692500 -122.459193 208 12031ft 194kts
08-Nov-20 11:27 39.641459 -122.482539 209 12051ft 193kts
08-Nov-20 11:28 39.591927 -122.509805 213 12048ft 193kts
08-Nov-20 11:29 39.542867 -122.537578 211 12063ft 193kts
08-Nov-20 11:30 39.492933 -122.563734 211 12087ft 193kts
08-Nov-20 11:31 39.442948 -122.590099 210 12094ft 193kts
08-Nov-20 11:32 39.392757 -122.616668 211 12002ft 197kts
08-Nov-20 11:33 39.342941 -122.643129 213 12053ft 194kts
08-Nov-20 11:34 39.293415 -122.670582 211 12068ft 194kts
08-Nov-20 11:35 39.243343 -122.697140 211 12071ft 196kts
08-Nov-20 11:36 39.193143 -122.724058 212 12088ft 194kts
08-Nov-20 11:37 39.142799 -122.751152 212 12006ft 198kts
08-Nov-20 11:38 39.092701 -122.778515 213 12046ft 195kts
08-Nov-20 11:39 39.043313 -122.806060 213 12089ft 194kts
08-Nov-20 11:40 38.993050 -122.833781 214 12006ft 197kts
08-Nov-20 11:41 38.942897 -122.861688 212 12002ft 196kts
08-Nov-20 11:42 38.892988 -122.889738 214 11964ft 195kts
08-Nov-20 11:43 38.848921 -122.913638 212 11952ft 195kts
08-Nov-20 11:44 38.799013 -122.939567 212 11966ft 193kts
08-Nov-20 11:45 38.749037 -122.965271 213 11974ft 193kts
08-Nov-20 11:46 38.697939 -122.986565 178 11985ft 210kts
08-Nov-20 11:47 38.639883 -122.974662 177 12001ft 210kts
08-Nov-20 11:48 38.582113 -122.962862 177 12005ft 211kts
08-Nov-20 11:49 38.524110 -122.951519 179 12028ft 210kts
08-Nov-20 11:50 38.466219 -122.942827 179 12053ft 210kts
08-Nov-20 11:51 38.407864 -122.932081 177 12036ft 211kts
08-Nov-20 11:52 38.349640 -122.920307 175 12030ft 212kts
08-Nov-20 11:53 38.291430 -122.907568 174 12027ft 213kts
08-Nov-20 11:54 38.233503 -122.893444 178 12033ft 211kts
08-Nov-20 11:55 38.175006 -122.882251 178 11972ft 214kts
08-Nov-20 11:56 38.116779 -122.872091 179 11968ft 212kts
08-Nov-20 11:57 38.058108 -122.861454 173 11945ft 212kts
08-Nov-20 11:58 38.001290 -122.840834 162 11984ft 214kts
08-Nov-20 11:59 37.945252 -122.813683 163 12010ft 215kts
08-Nov-20 12:00 37.888834 -122.787718 165 12019ft 216kts
08-Nov-20 12:01 37.832306 -122.763392 166 12007ft 215kts
08-Nov-20 12:02 37.778848 -122.731419 123 12064ft 215kts
08-Nov-20 12:03 37.760027 -122.661268 95 12046ft 209kts
08-Nov-20 12:04 37.739360 -122.592808 121 12082ft 214kts
08-Nov-20 12:05 37.706246 -122.530087 118 12048ft 214kts
08-Nov-20 12:06 37.674084 -122.466379 118 11922ft 218kts
08-Nov-20 12:07 37.639652 -122.402837 145 11632ft 217kts
08-Nov-20 12:08 37.584503 -122.386541 186 10607ft 199kts
08-Nov-20 12:09 37.533645 -122.364781 158 9460ft 193kts
08-Nov-20 12:10 37.485262 -122.337059 157 8180ft 190kts
08-Nov-20 12:11 37.437539 -122.310930 159 6949ft 185kts
08-Nov-20 12:12 37.390389 -122.286594 161 5709ft 181kts
08-Nov-20 12:13 37.345492 -122.262643 158 4973ft 170kts
08-Nov-20 12:14 37.304183 -122.238777 161 4942ft 159kts
08-Nov-20 12:15 37.264931 -122.217677 161 5011ft 151kts
08-Nov-20 12:16 37.226168 -122.197291 161 5008ft 152kts
08-Nov-20 12:17 37.194913 -122.165801 79 4862ft 153kts
08-Nov-20 12:18 37.209533 -122.120220 52 4722ft 133kts
08-Nov-20 12:19 37.223699 -122.079962 57 4840ft 124kts
08-Nov-20 12:20 37.237223 -122.038699 53 4631ft 126kts
08-Nov-20 12:21 37.263150 -122.033675 343 4123ft 99kts
08-Nov-20 12:22 37.290568 -122.038431 340 3452ft 98kts
08-Nov-20 12:23 37.316407 -122.047946 336 3342ft 99kts
08-Nov-20 12:24 37.344392 -122.058317 335 3124ft 107kts
08-Nov-20 12:25 37.373399 -122.069850 335 2417ft 112kts
08-Nov-20 12:26 37.402440 -122.084655 335 1701ft 109kts
08-Nov-20 12:27 37.426498 -122.091519 341 1086ft 84kts
08-Nov-20 12:28 37.446584 -122.100852 322 486ft 74kts
08-Nov-20 12:29 37.461162 -122.115088 319 6ft 41kts
08-Nov-20 12:30 37.463309 -122.117843 146 6ft 0kts
08-Nov-20 12:31 37.462089 -122.116624 142 6ft 16kts
08-Nov-20 12:32 37.459729 -122.114724 294 6ft 7kts
08-Nov-20 12:33 37.458902 -122.114938 179 6ft 0kts
08-Nov-20 12:34 37.458903 -122.114938 179 6ft 0kts
08-Nov-20 12:35 37.458903 -122.114938 179 6ft 0kts
08-Nov-20 12:36 37.458903 -122.114938 179 6ft 0kts
08-Nov-20 12:37 37.458903 -122.114938 179 6ft 0kts
08-Nov-20 12:38 37.458903 -122.114938 179 6ft 0kts
08-Nov-20 12:39 37.458903 -122.114938 179 6ft 0kts
08-Nov-20 12:40 37.458903 -122.114938 179 6ft 0kts
08-Nov-20 12:41 37.458903 -122.114938 179 6ft 0kts
08-Nov-20 12:42 37.458903 -122.114938 179 6ft 0kts
08-Nov-20 12:43 37.458903 -122.114938 179 6ft 0kts
08-Nov-20 12:44 37.458903 -122.114938 179 6ft 0kts
08-Nov-20 12:45 37.458903 -122.114938 179 6ft 0kts

Navigation Log

Ident Type
Flight plan parsing failed, navigation log unavailable